createdAt,value
2023-05-15T00:01:27.047Z,15.59
2023-05-15T00:03:55.092Z,15.57
2023-05-15T00:06:23.386Z,15.56
2023-05-15T00:08:51.002Z,15.56
2023-05-15T00:11:18.516Z,15.56
2023-05-15T00:13:46.080Z,15.57
2023-05-15T00:16:14.180Z,15.56
2023-05-15T00:18:41.743Z,15.54
2023-05-15T00:21:09.279Z,15.54
2023-05-15T00:23:36.768Z,15.54
2023-05-15T00:26:04.380Z,15.55
2023-05-15T00:28:31.825Z,15.55
2023-05-15T00:30:59.358Z,15.55
2023-05-15T00:33:26.835Z,15.54
2023-05-15T00:35:54.393Z,15.54
2023-05-15T00:38:22.035Z,15.54
2023-05-15T00:40:49.595Z,15.54
2023-05-15T00:43:18.273Z,15.54
2023-05-15T00:45:46.287Z,15.54
2023-05-15T00:48:14.358Z,15.53
2023-05-15T00:50:43.308Z,15.53
2023-05-15T00:53:11.178Z,15.52
2023-05-15T00:55:40.885Z,15.52
2023-05-15T00:58:13.580Z,15.53
2023-05-15T01:00:43.766Z,15.54
2023-05-15T01:03:11.842Z,15.54
2023-05-15T01:05:39.902Z,15.54
2023-05-15T01:08:20.783Z,15.53
2023-05-15T01:10:52.136Z,15.52
2023-05-15T01:13:21.933Z,15.52
2023-05-15T01:15:52.502Z,15.51
2023-05-15T01:18:20.081Z,15.49
2023-05-15T01:21:05.594Z,15.48
2023-05-15T01:23:46.666Z,15.47
2023-05-15T01:26:33.724Z,15.47
2023-05-15T01:29:23.977Z,15.45
2023-05-15T01:32:02.123Z,15.46
2023-05-15T01:34:50.108Z,15.47
2023-05-15T01:37:25.733Z,15.45
2023-05-15T01:40:01.266Z,15.46
2023-05-15T01:42:33.369Z,15.45
2023-05-15T01:45:06.059Z,15.44
2023-05-15T01:47:41.180Z,15.42
2023-05-15T01:50:14.606Z,15.41
2023-05-15T01:52:47.314Z,15.41
2023-05-15T01:55:16.295Z,15.40
2023-05-15T01:57:47.680Z,15.38
2023-05-15T02:00:16.951Z,15.35
2023-05-15T02:02:46.728Z,15.33
2023-05-15T02:05:15.407Z,15.32
2023-05-15T02:07:44.907Z,15.32
2023-05-15T02:10:14.265Z,15.31
2023-05-15T02:12:42.692Z,15.30
2023-05-15T02:15:11.438Z,15.27
2023-05-15T02:17:39.115Z,15.28
2023-05-15T02:20:09.603Z,15.26
2023-05-15T02:22:37.079Z,15.25
2023-05-15T02:25:04.975Z,15.25
2023-05-15T02:27:46.169Z,15.25
2023-05-15T02:30:35.552Z,15.25
2023-05-15T02:33:14.716Z,15.25
2023-05-15T02:35:49.119Z,15.25
2023-05-15T02:38:23.053Z,15.25
2023-05-15T02:40:54.232Z,15.26
2023-05-15T02:43:22.582Z,15.25
2023-05-15T02:45:52.599Z,15.25
2023-05-15T02:48:22.607Z,15.24
2023-05-15T02:50:52.318Z,15.24
2023-05-15T02:53:19.926Z,15.24
2023-05-15T02:55:50.055Z,15.22
2023-05-15T02:58:17.961Z,15.21
2023-05-15T03:00:45.624Z,15.21
2023-05-15T03:03:13.187Z,15.21
2023-05-15T03:05:40.722Z,15.21
2023-05-15T03:08:08.264Z,15.22
2023-05-15T03:10:35.753Z,15.21
2023-05-15T03:13:03.303Z,15.20
2023-05-15T03:15:30.972Z,15.20
2023-05-15T03:17:58.520Z,15.19
2023-05-15T03:20:26.104Z,15.17
2023-05-15T03:22:53.981Z,15.17
2023-05-15T03:25:22.894Z,15.17
2023-05-15T03:27:50.766Z,15.17
2023-05-15T03:30:18.321Z,15.17
2023-05-15T03:32:46.051Z,15.16
2023-05-15T03:35:14.840Z,15.16
2023-05-15T03:37:42.460Z,15.16
2023-05-15T03:40:10.419Z,15.17
2023-05-15T03:42:37.927Z,15.18
2023-05-15T03:45:06.131Z,15.19
2023-05-15T03:47:33.684Z,15.20
2023-05-15T03:50:01.183Z,15.19
2023-05-15T03:52:28.651Z,15.18
2023-05-15T03:54:56.285Z,15.20
2023-05-15T03:57:23.790Z,15.21
2023-05-15T03:59:51.299Z,15.23
2023-05-15T04:02:18.727Z,15.24
2023-05-15T04:04:46.274Z,15.25
2023-05-15T04:07:13.775Z,15.26
2023-05-15T04:09:41.301Z,15.27
2023-05-15T04:12:09.101Z,15.26
2023-05-15T04:14:36.665Z,15.27
2023-05-15T04:17:04.480Z,15.28
2023-05-15T04:19:32.040Z,15.28
2023-05-15T04:21:59.578Z,15.29
2023-05-15T04:24:27.098Z,15.31
2023-05-15T04:26:54.713Z,15.31
2023-05-15T04:29:23.572Z,15.35
2023-05-15T04:31:51.127Z,15.37
2023-05-15T04:34:18.814Z,15.39
2023-05-15T04:36:46.368Z,15.41
2023-05-15T04:39:14.053Z,15.42
2023-05-15T04:41:41.586Z,15.44
2023-05-15T04:44:09.213Z,15.46
2023-05-15T04:46:37.770Z,15.48
2023-05-15T04:49:06.757Z,15.50
2023-05-15T04:51:34.244Z,15.49
2023-05-15T04:54:01.700Z,15.50
2023-05-15T04:56:29.212Z,15.51
2023-05-15T04:58:56.636Z,15.51
2023-05-15T05:01:25.510Z,15.53
2023-05-15T05:03:53.168Z,15.55
2023-05-15T05:06:21.968Z,15.57
2023-05-15T05:08:49.460Z,15.61
2023-05-15T05:11:17.095Z,15.67
2023-05-15T05:13:44.630Z,15.70
2023-05-15T05:16:12.214Z,15.74
2023-05-15T05:18:39.834Z,15.78
2023-05-15T05:21:07.359Z,15.82
2023-05-15T05:23:34.923Z,15.85
2023-05-15T05:26:04.194Z,15.88
2023-05-15T05:28:35.927Z,15.91
2023-05-15T05:31:03.929Z,15.95
2023-05-15T05:33:34.606Z,15.97
2023-05-15T05:36:02.166Z,15.99
2023-05-15T05:38:32.272Z,16.01
2023-05-15T05:41:01.274Z,16.05
2023-05-15T05:43:28.898Z,16.08
2023-05-15T05:45:58.007Z,16.10
2023-05-15T05:48:26.805Z,16.11
2023-05-15T05:50:58.195Z,16.14
2023-05-15T05:53:28.275Z,16.16
2023-05-15T05:55:56.271Z,16.18
2023-05-15T05:58:26.127Z,16.19
2023-05-15T06:00:57.622Z,16.21
2023-05-15T06:03:27.800Z,16.23
2023-05-15T06:05:57.792Z,16.25
2023-05-15T06:08:26.024Z,16.26
2023-05-15T06:10:53.934Z,16.27
2023-05-15T06:13:22.169Z,16.26
2023-05-15T06:15:51.345Z,16.25
2023-05-15T06:18:18.928Z,16.25
2023-05-15T06:20:46.991Z,16.27
2023-05-15T06:23:14.543Z,16.25
2023-05-15T06:25:42.426Z,16.27
2023-05-15T06:28:09.925Z,16.28
2023-05-15T06:30:37.515Z,16.27
2023-05-15T06:33:05.292Z,16.28
2023-05-15T06:35:32.999Z,16.27
2023-05-15T06:38:00.876Z,16.30
2023-05-15T06:40:28.562Z,16.34
2023-05-15T06:42:59.071Z,16.36
2023-05-15T06:45:27.499Z,16.37
2023-05-15T06:47:55.613Z,16.38
2023-05-15T06:50:23.412Z,16.39
2023-05-15T06:52:51.394Z,16.38
2023-05-15T06:55:20.659Z,16.39
2023-05-15T06:57:48.125Z,16.41
2023-05-15T07:00:16.336Z,16.41
2023-05-15T07:02:44.163Z,16.40
2023-05-15T07:05:11.816Z,16.37
2023-05-15T07:07:39.618Z,16.33
2023-05-15T07:10:08.413Z,16.27
2023-05-15T07:12:36.028Z,16.22
2023-05-15T07:15:13.564Z,16.16
2023-05-15T07:17:41.185Z,16.10
2023-05-15T07:20:09.437Z,16.07
2023-05-15T07:22:44.623Z,16.00
2023-05-15T07:25:17.192Z,15.96
2023-05-15T07:27:45.066Z,15.90
2023-05-15T07:30:13.149Z,15.81
2023-05-15T07:32:41.418Z,15.72
2023-05-15T07:35:11.412Z,15.64
2023-05-15T07:37:39.356Z,15.58
2023-05-15T07:40:07.990Z,15.53
2023-05-15T07:42:35.663Z,15.47
2023-05-15T07:45:03.379Z,15.41
2023-05-15T07:47:30.966Z,15.34
2023-05-15T07:49:58.667Z,15.28
2023-05-15T07:52:27.035Z,15.24
2023-05-15T07:54:57.282Z,15.17
2023-05-15T07:57:26.649Z,15.11
2023-05-15T07:59:54.160Z,15.07
2023-05-15T08:02:21.692Z,15.03
2023-05-15T08:04:49.365Z,14.99
2023-05-15T08:07:16.966Z,14.96
2023-05-15T08:09:44.457Z,14.91
2023-05-15T08:12:23.412Z,14.85
2023-05-15T08:14:53.281Z,14.77
2023-05-15T08:17:21.905Z,14.69
2023-05-15T08:19:49.694Z,14.64
2023-05-15T08:22:17.930Z,14.59
2023-05-15T08:24:45.655Z,14.55
2023-05-15T08:27:13.595Z,14.51
2023-05-15T08:29:41.586Z,14.48
2023-05-15T08:32:10.248Z,14.46
2023-05-15T08:34:38.508Z,14.45
2023-05-15T08:37:06.882Z,14.39
2023-05-15T08:39:34.531Z,14.38
2023-05-15T08:42:18.076Z,14.39
2023-05-15T08:44:46.291Z,14.40
2023-05-15T08:47:15.629Z,14.42
2023-05-15T08:50:05.514Z,14.43
2023-05-15T08:52:34.061Z,14.44
2023-05-15T08:55:02.638Z,14.45
2023-05-15T08:57:32.047Z,14.48
2023-05-15T09:00:01.303Z,14.48
2023-05-15T09:02:29.486Z,14.46
2023-05-15T09:04:57.056Z,14.47
2023-05-15T09:07:25.464Z,14.53
2023-05-15T09:09:54.422Z,14.57
2023-05-15T09:12:25.281Z,14.61
2023-05-15T09:15:12.298Z,14.64
2023-05-15T09:17:40.781Z,14.62
2023-05-15T09:20:25.688Z,14.62
2023-05-15T09:22:53.610Z,14.60
2023-05-15T09:25:38.364Z,14.62
2023-05-15T09:28:25.285Z,14.65
2023-05-15T09:30:58.158Z,14.60
2023-05-15T09:33:35.141Z,14.57
2023-05-15T09:36:04.835Z,14.52
2023-05-15T09:38:34.385Z,14.48
2023-05-15T09:41:04.396Z,14.51
2023-05-15T09:43:37.826Z,14.52
2023-05-15T09:46:06.938Z,14.52
2023-05-15T09:48:35.931Z,14.50
2023-05-15T09:51:07.791Z,14.50
2023-05-15T09:53:35.614Z,14.52
2023-05-15T09:56:03.427Z,14.55
2023-05-15T09:58:32.153Z,14.59
2023-05-15T10:01:01.380Z,14.61
2023-05-15T10:03:29.155Z,14.65
2023-05-15T10:06:02.144Z,14.68
2023-05-15T10:08:30.067Z,14.72
2023-05-15T10:11:01.114Z,14.78
2023-05-15T10:13:34.324Z,14.81
2023-05-15T10:16:05.198Z,14.85
2023-05-15T10:18:35.912Z,14.89
2023-05-15T10:21:04.718Z,14.96
2023-05-15T10:23:36.404Z,15.03
2023-05-15T10:26:14.259Z,15.08
2023-05-15T10:28:45.711Z,15.13
2023-05-15T10:31:14.374Z,15.15
2023-05-15T10:33:43.605Z,15.12
2023-05-15T10:36:11.700Z,15.31
2023-05-15T10:38:40.364Z,15.43
2023-05-15T10:41:17.780Z,15.34
2023-05-15T10:43:46.410Z,15.57
2023-05-15T10:46:15.767Z,15.87
2023-05-15T10:48:43.763Z,16.03
2023-05-15T10:51:19.152Z,16.04
2023-05-15T10:53:46.985Z,15.97
2023-05-15T10:56:19.230Z,15.92
2023-05-15T10:58:52.553Z,15.90
2023-05-15T11:01:40.018Z,15.86
2023-05-15T11:04:19.558Z,15.76
2023-05-15T11:06:49.982Z,15.66
2023-05-15T11:09:34.496Z,15.56
2023-05-15T11:12:07.043Z,15.46
2023-05-15T11:14:40.979Z,15.42
2023-05-15T11:17:16.602Z,15.38
2023-05-15T11:19:50.831Z,15.29
2023-05-15T11:22:34.314Z,15.21
2023-05-15T11:25:14.155Z,15.16
2023-05-15T11:27:46.159Z,15.14
2023-05-15T11:30:35.975Z,15.13
2023-05-15T11:33:20.424Z,15.14
2023-05-15T11:35:48.409Z,15.16
2023-05-15T11:38:20.094Z,15.17
2023-05-15T11:40:56.586Z,15.27
2023-05-15T11:43:25.488Z,15.41
2023-05-15T11:45:58.152Z,15.52
2023-05-15T11:48:31.695Z,15.54
2023-05-15T11:51:02.217Z,15.53
2023-05-15T11:53:31.050Z,15.53
2023-05-15T11:55:59.220Z,15.51
2023-05-15T11:58:26.864Z,15.50
2023-05-15T12:00:54.910Z,15.50
2023-05-15T12:03:32.334Z,15.52
2023-05-15T12:06:02.393Z,15.52
2023-05-15T12:08:34.941Z,15.47
2023-05-15T12:11:03.731Z,15.42
2023-05-15T12:13:32.960Z,15.39
2023-05-15T12:16:03.464Z,15.41
2023-05-15T12:18:32.503Z,15.40
2023-05-15T12:21:00.902Z,15.43
2023-05-15T12:23:28.954Z,15.38
2023-05-15T12:26:03.342Z,15.43
2023-05-15T12:28:34.347Z,15.40
2023-05-15T12:31:02.703Z,15.33
2023-05-15T12:33:30.537Z,15.26
2023-05-15T12:36:01.244Z,15.21
2023-05-15T12:38:30.482Z,15.12
2023-05-15T12:40:58.447Z,15.05
2023-05-15T12:43:30.859Z,14.99
2023-05-15T12:45:58.562Z,14.91
2023-05-15T12:48:32.241Z,14.82
2023-05-15T12:51:08.003Z,14.81
2023-05-15T12:53:36.080Z,14.81
2023-05-15T12:56:04.814Z,14.75
2023-05-15T12:58:33.816Z,14.71
2023-05-15T13:01:04.704Z,14.69
2023-05-15T13:03:33.983Z,14.68
2023-05-15T13:06:09.765Z,14.70
2023-05-15T13:08:41.842Z,14.70
2023-05-15T13:11:14.524Z,14.69
2023-05-15T13:13:45.003Z,14.74
2023-05-15T13:16:24.462Z,14.77
2023-05-15T13:18:52.892Z,14.78
2023-05-15T13:21:20.571Z,14.81
2023-05-15T13:23:48.798Z,14.83
2023-05-15T13:26:16.534Z,14.87
2023-05-15T13:28:49.373Z,14.87
2023-05-15T13:31:30.942Z,14.87
2023-05-15T13:33:58.586Z,14.82
2023-05-15T13:36:26.171Z,14.79
2023-05-15T13:38:53.685Z,14.74
2023-05-15T13:41:21.276Z,14.71
2023-05-15T13:43:49.448Z,14.71
2023-05-15T13:46:17.084Z,14.70
2023-05-15T13:48:44.818Z,14.68
2023-05-15T13:51:12.309Z,14.67
2023-05-15T13:53:39.864Z,14.66
2023-05-15T13:56:07.632Z,14.64
2023-05-15T13:58:35.334Z,14.64
2023-05-15T14:01:07.105Z,14.65
2023-05-15T14:03:34.885Z,14.67
2023-05-15T14:06:03.927Z,14.70
2023-05-15T14:08:31.532Z,14.72
2023-05-15T14:10:59.191Z,14.73
2023-05-15T14:13:26.686Z,14.70
2023-05-15T14:15:54.919Z,14.70
2023-05-15T14:18:22.480Z,14.69
2023-05-15T14:20:49.998Z,14.67
2023-05-15T14:23:17.566Z,14.62
2023-05-15T14:25:45.046Z,14.58
2023-05-15T14:28:13.019Z,14.56
2023-05-15T14:30:40.561Z,14.54
2023-05-15T14:33:08.183Z,14.55
2023-05-15T14:35:36.003Z,14.54
2023-05-15T14:38:04.526Z,14.53
2023-05-15T14:40:32.041Z,14.53
2023-05-15T14:42:59.538Z,14.51
2023-05-15T14:45:27.191Z,14.49
2023-05-15T14:47:54.816Z,14.47
2023-05-15T14:50:22.284Z,14.44
2023-05-15T14:52:49.805Z,14.43
2023-05-15T14:55:22.658Z,14.41
2023-05-15T14:57:50.249Z,14.41
2023-05-15T15:00:17.977Z,14.42
2023-05-15T15:02:46.441Z,14.43
2023-05-15T15:05:17.499Z,14.44
2023-05-15T15:08:05.136Z,14.45
2023-05-15T15:10:35.085Z,14.47
2023-05-15T15:13:04.025Z,14.49
2023-05-15T15:15:34.287Z,14.49
2023-05-15T15:18:02.288Z,14.50
2023-05-15T15:20:30.040Z,14.50
2023-05-15T15:22:57.768Z,14.50
2023-05-15T15:25:25.528Z,14.50
2023-05-15T15:27:53.230Z,14.49
2023-05-15T15:30:22.274Z,14.48
2023-05-15T15:32:49.876Z,14.49
2023-05-15T15:35:17.684Z,14.49
2023-05-15T15:37:45.250Z,14.48
2023-05-15T15:40:12.883Z,14.47
2023-05-15T15:42:40.513Z,14.45
2023-05-15T15:45:08.552Z,14.42
2023-05-15T15:47:36.701Z,14.41
2023-05-15T15:50:04.586Z,14.41
2023-05-15T15:52:32.132Z,14.43
2023-05-15T15:54:59.657Z,14.44
2023-05-15T15:57:29.624Z,14.43
2023-05-15T15:59:57.288Z,14.42
2023-05-15T16:02:24.940Z,14.42
2023-05-15T16:04:52.690Z,14.42
2023-05-15T16:07:20.687Z,14.44
2023-05-15T16:09:56.891Z,14.46
2023-05-15T16:12:35.787Z,14.46
2023-05-15T16:15:20.118Z,14.47
2023-05-15T16:17:54.982Z,14.49
2023-05-15T16:20:25.018Z,14.50
2023-05-15T16:22:53.157Z,14.52
2023-05-15T16:25:20.944Z,14.52
2023-05-15T16:27:48.627Z,14.51
2023-05-15T16:30:16.542Z,14.52
2023-05-15T16:32:44.267Z,14.52
2023-05-15T16:35:12.383Z,14.53
2023-05-15T16:37:40.057Z,14.54
2023-05-15T16:40:08.440Z,14.56
2023-05-15T16:42:38.244Z,14.57
2023-05-15T16:45:06.915Z,14.58
2023-05-15T16:47:36.583Z,14.57
2023-05-15T16:50:05.518Z,14.57
2023-05-15T16:52:33.137Z,14.59
2023-05-15T16:55:00.782Z,14.62
2023-05-15T16:57:28.293Z,14.64
2023-05-15T16:59:56.367Z,14.65
2023-05-15T17:02:24.018Z,14.67
2023-05-15T17:04:53.265Z,14.66
2023-05-15T17:07:21.088Z,14.64
2023-05-15T17:09:52.303Z,14.62
2023-05-15T17:12:19.788Z,14.62
2023-05-15T17:14:47.261Z,14.63
2023-05-15T17:17:14.825Z,14.62
2023-05-15T17:19:42.355Z,14.59
2023-05-15T17:22:09.918Z,14.59
2023-05-15T17:24:49.990Z,14.61
2023-05-15T17:27:19.296Z,14.62
2023-05-15T17:29:46.836Z,14.61
2023-05-15T17:32:15.836Z,14.61
2023-05-15T17:34:43.544Z,14.59
2023-05-15T17:37:11.235Z,14.57
2023-05-15T17:39:38.890Z,14.55
2023-05-15T17:42:06.498Z,14.54
2023-05-15T17:44:34.017Z,14.54
2023-05-15T17:47:03.051Z,14.53
2023-05-15T17:49:30.603Z,14.52
2023-05-15T17:51:58.422Z,14.50
2023-05-15T17:54:26.092Z,14.49
2023-05-15T17:56:53.599Z,14.50
2023-05-15T17:59:21.256Z,14.52
2023-05-15T18:01:48.927Z,14.52
2023-05-15T18:04:16.628Z,14.53
2023-05-15T18:06:44.378Z,14.54
2023-05-15T18:09:12.000Z,14.54
2023-05-15T18:11:39.558Z,14.52
2023-05-15T18:14:07.193Z,14.49
2023-05-15T18:16:34.775Z,14.46
2023-05-15T18:19:02.400Z,14.41
2023-05-15T18:21:29.874Z,14.39
2023-05-15T18:23:57.339Z,14.37
2023-05-15T18:26:25.743Z,14.36
2023-05-15T18:28:53.288Z,14.34
2023-05-15T18:31:20.899Z,14.33
2023-05-15T18:33:48.541Z,14.31
2023-05-15T18:36:16.221Z,14.26
2023-05-15T18:38:43.781Z,14.22
2023-05-15T18:41:11.274Z,14.19
2023-05-15T18:43:38.834Z,14.14
2023-05-15T18:46:06.467Z,14.10
2023-05-15T18:48:34.062Z,14.04
2023-05-15T18:51:02.304Z,14.02
2023-05-15T18:53:30.163Z,13.99
2023-05-15T18:55:57.763Z,13.96
2023-05-15T18:58:25.599Z,13.93
2023-05-15T19:00:53.345Z,13.89
2023-05-15T19:03:21.071Z,13.89
2023-05-15T19:05:48.757Z,13.88
2023-05-15T19:08:16.390Z,13.88
2023-05-15T19:10:48.289Z,13.88
2023-05-15T19:13:16.629Z,13.89
2023-05-15T19:15:52.238Z,13.90
2023-05-15T19:18:20.166Z,13.90
2023-05-15T19:20:52.368Z,13.91
2023-05-15T19:23:23.903Z,13.88
2023-05-15T19:25:51.486Z,13.87
2023-05-15T19:28:18.984Z,13.86
2023-05-15T19:30:46.644Z,13.85
2023-05-15T19:33:15.947Z,13.82
2023-05-15T19:35:44.824Z,13.78
2023-05-15T19:38:13.433Z,13.77
2023-05-15T19:40:44.344Z,13.74
2023-05-15T19:43:14.116Z,13.71
2023-05-15T19:45:42.193Z,13.69
2023-05-15T19:48:09.758Z,13.69
2023-05-15T19:50:40.619Z,13.67
2023-05-15T19:53:08.367Z,13.66
2023-05-15T19:55:36.107Z,13.65
2023-05-15T19:58:04.088Z,13.62
2023-05-15T20:00:32.307Z,13.59
2023-05-15T20:03:00.960Z,13.56
2023-05-15T20:05:29.073Z,13.52
2023-05-15T20:07:56.598Z,13.51
2023-05-15T20:10:24.701Z,13.49
2023-05-15T20:12:52.727Z,13.46
2023-05-15T20:15:20.237Z,13.44
2023-05-15T20:17:48.985Z,13.43
2023-05-15T20:20:16.620Z,13.39
2023-05-15T20:22:45.057Z,13.36
2023-05-15T20:25:12.646Z,13.35
2023-05-15T20:27:40.323Z,13.34
2023-05-15T20:30:08.603Z,13.34
2023-05-15T20:32:36.300Z,13.33
2023-05-15T20:35:04.313Z,13.30
2023-05-15T20:37:31.906Z,13.29
2023-05-15T20:40:00.004Z,13.27
2023-05-15T20:42:28.489Z,13.26
2023-05-15T20:44:56.166Z,13.27
2023-05-15T20:47:24.670Z,13.29
2023-05-15T20:49:52.253Z,13.32
2023-05-15T20:52:20.782Z,13.35
2023-05-15T20:54:51.074Z,13.37
2023-05-15T20:57:18.618Z,13.41
2023-05-15T20:59:46.302Z,13.45
2023-05-15T21:02:13.837Z,13.47
2023-05-15T21:04:41.594Z,13.49
2023-05-15T21:07:09.248Z,13.50
2023-05-15T21:09:36.786Z,13.51
2023-05-15T21:12:04.562Z,13.53
2023-05-15T21:14:32.122Z,13.54
2023-05-15T21:16:59.604Z,13.54
2023-05-15T21:19:27.216Z,13.53
2023-05-15T21:21:54.721Z,13.52
2023-05-15T21:24:22.257Z,13.51
2023-05-15T21:26:49.808Z,13.50
2023-05-15T21:29:17.280Z,13.52
2023-05-15T21:31:45.290Z,13.53
2023-05-15T21:34:12.838Z,13.55
2023-05-15T21:36:41.367Z,13.55
2023-05-15T21:39:09.471Z,13.54
2023-05-15T21:41:37.108Z,13.53
2023-05-15T21:44:04.815Z,13.55
2023-05-15T21:46:32.517Z,13.55
2023-05-15T21:49:01.773Z,13.54
2023-05-15T21:51:29.363Z,13.54
2023-05-15T21:53:58.373Z,13.54
2023-05-15T21:56:25.921Z,13.55
2023-05-15T21:58:53.551Z,13.53
2023-05-15T22:01:21.096Z,13.53
2023-05-15T22:03:48.849Z,13.52
2023-05-15T22:06:17.766Z,13.51
2023-05-15T22:08:45.318Z,13.49
2023-05-15T22:11:12.976Z,13.48
2023-05-15T22:13:40.704Z,13.45
2023-05-15T22:16:17.933Z,13.44
2023-05-15T22:18:47.493Z,13.44
2023-05-15T22:21:15.929Z,13.40
2023-05-15T22:23:43.394Z,13.38
2023-05-15T22:26:12.137Z,13.36
2023-05-15T22:28:39.602Z,13.36
2023-05-15T22:31:07.449Z,13.34
2023-05-15T22:33:35.054Z,13.33
2023-05-15T22:36:02.942Z,13.32
2023-05-15T22:38:30.449Z,13.31
2023-05-15T22:40:58.488Z,13.31
2023-05-15T22:43:26.065Z,13.30
2023-05-15T22:45:53.691Z,13.29
2023-05-15T22:48:22.651Z,13.29
2023-05-15T22:50:52.219Z,13.27
2023-05-15T22:53:19.757Z,13.26
2023-05-15T22:55:48.020Z,13.24
2023-05-15T22:58:16.279Z,13.23
2023-05-15T23:00:44.244Z,13.19
2023-05-15T23:03:11.963Z,13.17
2023-05-15T23:05:40.501Z,13.15
2023-05-15T23:08:08.062Z,13.14
2023-05-15T23:10:35.629Z,13.13
2023-05-15T23:13:04.208Z,13.11
2023-05-15T23:15:31.834Z,13.08
2023-05-15T23:17:59.417Z,13.04
2023-05-15T23:20:27.261Z,13.04
2023-05-15T23:22:55.261Z,13.02
2023-05-15T23:25:22.778Z,13.02
2023-05-15T23:27:50.443Z,13.01
2023-05-15T23:30:18.085Z,13.02
2023-05-15T23:32:45.829Z,13.01
2023-05-15T23:35:13.414Z,12.98
2023-05-15T23:37:41.064Z,12.97
2023-05-15T23:40:08.870Z,12.96
2023-05-15T23:42:36.351Z,12.93
2023-05-15T23:45:04.216Z,12.91
2023-05-15T23:47:31.756Z,12.90
2023-05-15T23:49:59.349Z,12.89
2023-05-15T23:52:27.143Z,12.89
2023-05-15T23:54:54.614Z,12.89
2023-05-15T23:57:22.433Z,12.90
2023-05-15T23:59:50.012Z,12.89
